Time;durP1;ratioP1;P1;durP2;ratioP2;P2;SDS_P1;SDS_P2;PMS_P1;PMS_P2;Temp;Humidity;BMP_temperature;BMP_pressure;BME280_temperature;BME280_humidity;BME280_pressure;Samples;Min_cycle;Max_cycle;Signal;HPM_P1;HPM_P2
2022/01/15 07:21:47;;;;;;;;;;;;;;;1.50;83.36;97947.91;4152701;28;10465;-69
2022/01/15 07:23:48;;;;;;;;;;;;;;;1.62;83.44;97953.09;4158206;28;5975;-70
2022/01/15 07:25:50;;;;;;;;;;;;;;;1.76;82.63;97954.69;4151281;28;5940;-70
2022/01/15 07:27:52;;;;;;;;;;;;;;;1.56;83.16;97953.50;4149226;28;5695;-70
2022/01/15 07:29:54;;;;;;;;;;;;;;;1.75;82.40;97963.47;4150585;28;5909;-69
2022/01/15 07:31:56;;;;;;;;;;;;;;;1.84;82.23;97968.03;4151402;28;5757;-70
2022/01/15 07:33:57;;;;;;;;;;;;;;;1.84;81.88;97962.81;4160412;28;5881;-71
2022/01/15 07:35:59;;;;;;;;;;;;;;;1.85;81.61;97966.25;4149954;28;6409;-70
2022/01/15 07:38:01;;;;;;;;;;;;;;;1.62;82.30;97968.72;4154096;28;5882;-70
2022/01/15 07:40:06;;;;;;;;;;;;;;;1.74;81.95;97965.25;4165025;28;5763;-70
2022/01/15 07:42:09;;;;;;;;;;;;;;;1.81;81.62;97965.63;4154367;28;5779;-70
2022/01/15 07:44:11;;;;;;;;;;;;;;;1.88;81.79;97963.41;4166387;28;5834;-70
2022/01/15 07:46:13;;;;;;;;;;;;;;;1.94;81.23;97963.00;4152612;28;5896;-70
2022/01/15 07:48:14;;;;;;;;;;;;;;;1.98;81.05;97960.03;4158963;28;5752;-69
2022/01/15 07:50:23;;;;;;;;;;;;;;;2.02;81.01;97960.63;4165670;28;6041;-70
2022/01/15 07:52:25;;;;;;;;;;;;;;;2.04;81.04;97959.59;4167062;28;5912;-70
2022/01/15 07:54:27;;;;;;;;;;;;;;;2.01;80.87;97958.97;4176235;28;5758;-69
2022/01/15 07:56:29;;;;;;;;;;;;;;;2.03;80.89;97957.09;4165430;28;5908;-70
2022/01/15 07:58:30;;;;;;;;;;;;;;;2.08;80.82;97960.22;4164274;28;5960;-69
2022/01/15 08:00:32;;;;;;;;;;;;;;;2.09;80.83;97958.44;4166367;28;5810;-70
2022/01/15 08:02:34;;;;;;;;;;;;;;;2.07;80.53;97963.75;4165747;28;5786;-69
2022/01/15 08:04:37;;;;;;;;;;;;;;;2.10;80.78;97958.31;4165093;28;5680;-70
2022/01/15 08:06:41;;;;;;;;;;;;;;;2.08;80.55;97959.38;4190009;28;5728;-70
2022/01/15 08:08:42;;;;;;;;;;;;;;;2.06;80.69;97956.06;4199020;28;5715;-70
2022/01/15 08:10:44;;;;;;;;;;;;;;;2.01;80.75;97953.75;4198836;28;5691;-70
2022/01/15 08:12:48;;;;;;;;;;;;;;;2.01;80.75;97959.81;4199262;28;5711;-70
2022/01/15 08:14:51;;;;;;;;;;;;;;;2.00;80.53;97958.16;4198935;28;5722;-71
2022/01/15 08:16:52;;;;;;;;;;;;;;;2.01;80.72;97958.97;4198964;28;6382;-70
2022/01/15 08:18:54;;;;;;;;;;;;;;;2.02;80.37;97960.63;4198782;28;6408;-70
2022/01/15 08:20:56;;;;;;;;;;;;;;;2.03;80.39;97957.09;4197844;28;5719;-70
2022/01/15 08:22:58;;;;;;;;;;;;;;;2.03;80.46;97957.91;4187468;28;5858;-70
2022/01/15 08:24:59;;;;;;;;;;;;;;;2.07;80.19;97957.72;4187767;28;5723;-70
2022/01/15 08:27:01;;;;;;;;;;;;;;;2.10;80.35;97957.47;4187610;28;5863;-68
2022/01/15 08:29:03;;;;;;;;;;;;;;;2.10;80.22;97954.88;4187348;28;5724;-68
2022/01/15 08:31:06;;;;;;;;;;;;;;;2.11;80.30;97956.53;4180309;28;5733;-68
2022/01/15 08:33:07;;;;;;;;;;;;;;;2.07;80.40;97962.94;4164772;23;5736;-69
2022/01/15 08:35:10;;;;;;;;;;;;;;;2.06;80.53;97959.50;4173585;23;5670;-68
2022/01/15 08:37:11;;;;;;;;;;;;;;;2.07;80.53;97962.94;4122352;28;5699;-69
2022/01/15 08:39:13;;;;;;;;;;;;;;;2.13;80.66;97967.69;4091346;28;5837;-69
2022/01/15 08:41:15;;;;;;;;;;;;;;;2.14;80.46;97970.19;4106105;28;5714;-68
2022/01/15 08:43:17;;;;;;;;;;;;;;;2.17;80.31;97969.16;4120513;28;5803;-69
2022/01/15 08:45:19;;;;;;;;;;;;;;;2.18;80.45;97966.41;4122923;28;5762;-69
2022/01/15 08:47:21;;;;;;;;;;;;;;;2.24;80.27;97971.16;4123390;28;5352;-69
2022/01/15 08:49:23;;;;;;;;;;;;;;;2.28;80.22;97962.19;4109302;28;7217;-71
2022/01/15 08:51:24;;;;;;;;;;;;;;;2.31;80.13;97961.13;4121908;28;5695;-69
2022/01/15 08:53:26;;;;;;;;;;;;;;;2.37;80.24;97962.44;4107187;28;5729;-69
2022/01/15 08:55:28;;;;;;;;;;;;;;;2.42;80.13;97962.94;4106316;28;5730;-70
2022/01/15 08:57:30;;;;;;;;;;;;;;;2.46;80.00;97959.97;4110406;28;6045;-70
2022/01/15 08:59:32;;;;;;;;;;;;;;;2.48;80.01;97957.25;4151224;23;5704;-70
2022/01/15 09:01:34;;;;;;;;;;;;;;;2.50;80.05;97955.38;4180148;28;6442;-70
2022/01/15 09:03:35;;;;;;;;;;;;;;;2.52;79.99;97953.50;4164874;28;5751;-70
2022/01/15 09:05:37;;;;;;;;;;;;;;;2.48;80.67;97957.25;4160506;28;5774;-70
2022/01/15 09:07:40;;;;;;;;;;;;;;;2.49;80.69;97958.91;4160396;28;5501;-70
2022/01/15 09:09:43;;;;;;;;;;;;;;;2.62;80.50;97954.47;4183778;28;7782;-70
2022/01/15 09:11:45;;;;;;;;;;;;;;;2.69;80.40;97954.81;4158092;28;5674;-70
2022/01/15 09:13:48;;;;;;;;;;;;;;;2.67;80.15;97957.56;4161246;28;5721;-70
2022/01/15 09:15:52;;;;;;;;;;;;;;;2.69;80.52;97955.66;4151390;28;5935;-70
2022/01/15 09:17:56;;;;;;;;;;;;;;;2.79;80.30;97953.19;4168601;28;5725;-71
2022/01/15 09:19:58;;;;;;;;;;;;;;;2.89;79.82;97947.16;4148156;23;5859;-70
2022/01/15 09:22:01;;;;;;;;;;;;;;;2.91;79.72;97941.81;4126170;28;5716;-70
2022/01/15 09:24:03;;;;;;;;;;;;;;;2.92;79.70;97941.69;4136807;28;6498;-70
2022/01/15 09:26:06;;;;;;;;;;;;;;;2.85;79.90;97943.13;4125969;28;5676;-70
2022/01/15 09:30:29;;;;;;;;;;;;;;;2.64;81.03;97949.97;4132012;28;5780;-70
2022/01/15 09:32:31;;;;;;;;;;;;;;;2.74;80.63;97952.72;4120170;28;6390;-70
2022/01/15 09:34:34;;;;;;;;;;;;;;;2.82;80.68;97940.72;4120573;28;5723;-70
2022/01/15 09:36:37;;;;;;;;;;;;;;;2.81;80.42;97944.28;4121330;28;5705;-70
2022/01/15 09:38:38;;;;;;;;;;;;;;;2.79;80.40;97948.78;4121284;28;5726;-70
2022/01/15 09:40:41;;;;;;;;;;;;;;;2.76;80.29;97950.81;4104223;28;5872;-70
2022/01/15 09:42:47;;;;;;;;;;;;;;;2.57;80.79;97946.13;4126656;28;5811;-69
2022/01/15 09:44:49;;;;;;;;;;;;;;;2.65;80.81;97941.19;4137798;28;5691;-69
2022/01/15 09:46:52;;;;;;;;;;;;;;;2.79;80.24;97948.78;4103517;28;5860;-70
2022/01/15 09:48:53;;;;;;;;;;;;;;;2.80;80.15;97937.41;4137420;28;5691;-69
2022/01/15 09:50:56;;;;;;;;;;;;;;;2.85;80.13;97934.44;4119904;28;5975;-70
2022/01/15 09:52:59;;;;;;;;;;;;;;;2.79;79.97;97943.56;4137205;28;5747;-70
2022/01/15 09:55:04;;;;;;;;;;;;;;;2.76;80.45;97940.38;4137189;28;5671;-70
2022/01/15 09:57:06;;;;;;;;;;;;;;;2.75;80.67;97944.75;4151552;28;5789;-70
2022/01/15 09:59:07;;;;;;;;;;;;;;;2.83;80.32;97941.53;4137236;28;5691;-70
2022/01/15 10:01:09;;;;;;;;;;;;;;;2.85;80.20;97939.66;4137086;28;5826;-70
2022/01/15 10:03:11;;;;;;;;;;;;;;;2.96;79.92;97949.31;4136768;28;5691;-69
2022/01/15 10:05:14;;;;;;;;;;;;;;;2.99;79.93;97941.22;4137239;28;5722;-69
2022/01/15 10:07:20;;;;;;;;;;;;;;;2.98;79.91;97942.19;4136825;28;5691;-69
2022/01/15 10:09:22;;;;;;;;;;;;;;;3.00;79.67;97941.09;4137091;28;5700;-70
2022/01/15 10:11:59;;;;;;;;;;;;;;;2.67;80.81;97941.88;4136915;28;5683;-70
2022/01/15 10:14:01;;;;;;;;;;;;;;;2.51;81.51;97937.00;4086862;29;6627;-70
2022/01/15 10:16:03;;;;;;;;;;;;;;;2.50;81.47;97943.16;4086778;29;5917;-70
2022/01/15 10:18:22;;;;;;;;;;;;;;;2.84;80.31;97941.47;4070213;29;5342;-70
2022/01/15 10:20:23;;;;;;;;;;;;;;;2.91;80.26;97936.56;4084500;28;7863;-70
2022/01/15 10:22:28;;;;;;;;;;;;;;;2.91;79.69;97937.41;4086950;28;6046;-69
2022/01/15 10:24:29;;;;;;;;;;;;;;;2.88;80.18;97935.03;4087236;29;5980;-70
2022/01/15 10:26:35;;;;;;;;;;;;;;;3.01;79.63;97934.09;4071823;29;5954;-70
2022/01/15 10:29:03;;;;;;;;;;;;;;;2.91;79.66;97926.13;4076810;29;5930;-70
2022/01/15 10:31:20;;;;;;;;;;;;;;;2.82;79.87;97919.81;4076527;29;6051;-70
2022/01/15 10:33:22;;;;;;;;;;;;;;;2.84;79.98;97925.78;4127521;23;5585;-70
2022/01/15 10:35:30;;;;;;;;;;;;;;;2.71;79.83;97926.81;4135237;28;5706;-70
2022/01/15 10:37:36;;;;;;;;;;;;;;;2.60;80.00;97919.78;4137374;28;5863;-70
2022/01/15 10:40:00;;;;;;;;;;;;;;;2.46;80.25;97918.22;4150000;28;5817;-69
2022/01/15 10:42:12;;;;;;;;;;;;;;;2.42;80.44;97915.97;4152756;28;5844;-69
2022/01/15 10:44:29;;;;;;;;;;;;;;;2.41;80.65;97915.13;4152780;28;5798;-70
2022/01/15 10:46:36;;;;;;;;;;;;;;;2.46;80.41;97920.00;4152835;28;5757;-70
2022/01/15 10:48:40;;;;;;;;;;;;;;;2.60;80.44;97922.41;4152171;28;6536;-69
2022/01/15 10:50:56;;;;;;;;;;;;;;;2.65;80.13;97907.22;4150672;28;6431;-70
2022/01/15 10:53:10;;;;;;;;;;;;;;;2.68;79.81;97904.38;4140212;28;5787;-70
2022/01/15 10:55:15;;;;;;;;;;;;;;;2.74;79.83;97903.94;4141964;28;5961;-70
2022/01/15 10:57:21;;;;;;;;;;;;;;;2.73;79.98;97904.88;4147558;28;5788;-70
2022/01/15 10:59:22;;;;;;;;;;;;;;;2.69;80.34;97908.66;4136582;28;5783;-70
2022/01/15 11:01:27;;;;;;;;;;;;;;;2.85;79.83;97897.88;4137299;28;5879;-70
2022/01/15 11:03:44;;;;;;;;;;;;;;;2.83;79.24;97910.22;4135939;28;5843;-70
2022/01/15 11:05:48;;;;;;;;;;;;;;;2.76;79.29;97902.03;4136053;28;5764;-70
2022/01/15 11:07:50;;;;;;;;;;;;;;;2.73;79.40;97907.50;4138671;28;5747;-70
2022/01/15 11:09:55;;;;;;;;;;;;;;;2.66;79.66;97901.06;4151537;28;6471;-70
2022/01/15 11:12:00;;;;;;;;;;;;;;;2.54;79.68;97900.22;4151407;28;5228;-70
2022/01/15 11:14:01;;;;;;;;;;;;;;;2.51;79.75;97904.84;4146259;28;7800;-70
2022/01/15 11:16:12;;;;;;;;;;;;;;;2.53;79.97;97908.16;4147356;28;5125;-70
2022/01/15 11:18:22;;;;;;;;;;;;;;;2.41;80.00;97903.88;4139627;28;7361;-70
2022/01/15 11:20:29;;;;;;;;;;;;;;;2.40;80.19;97902.22;4136142;28;5784;-70
2022/01/15 11:22:33;;;;;;;;;;;;;;;2.42;79.90;97900.31;4134903;28;5103;-70
2022/01/15 11:24:36;;;;;;;;;;;;;;;2.37;80.40;97903.25;4135945;28;5824;-70
2022/01/15 11:26:38;;;;;;;;;;;;;;;2.38;80.45;97893.63;4140421;28;5847;-70
2022/01/15 11:28:43;;;;;;;;;;;;;;;2.37;80.41;97890.19;4141436;28;5757;-70
2022/01/15 11:30:46;;;;;;;;;;;;;;;2.48;80.09;97890.22;4152205;28;5758;-70
2022/01/15 11:32:47;;;;;;;;;;;;;;;2.56;80.20;97876.59;4157576;28;5669;-70
2022/01/15 11:35:05;;;;;;;;;;;;;;;2.58;79.84;97880.75;4168517;28;6461;-70
2022/01/15 11:37:20;;;;;;;;;;;;;;;2.50;80.35;97877.09;4168369;28;5737;-70
2022/01/15 11:39:29;;;;;;;;;;;;;;;2.62;80.30;97876.97;4167495;28;5673;-70
2022/01/15 11:41:30;;;;;;;;;;;;;;;2.71;79.66;97872.81;4167379;28;5661;-70
2022/01/15 11:43:33;;;;;;;;;;;;;;;2.71;79.48;97875.41;4168663;28;6417;-70
2022/01/15 11:45:36;;;;;;;;;;;;;;;2.61;79.38;97866.66;4156672;28;5762;-70
2022/01/15 11:47:37;;;;;;;;;;;;;;;2.62;79.95;97865.72;4152056;28;5737;-70
2022/01/15 11:49:44;;;;;;;;;;;;;;;2.64;80.15;97866.41;4162211;28;5925;-70
2022/01/15 11:51:47;;;;;;;;;;;;;;;2.69;79.93;97861.66;4170381;28;5105;-69
2022/01/15 11:53:53;;;;;;;;;;;;;;;2.78;79.51;97858.34;4168633;28;5740;-69
2022/01/15 11:56:17;;;;;;;;;;;;;;;2.90;79.33;97860.00;4168381;28;5729;-69
2022/01/15 11:58:21;;;;;;;;;;;;;;;2.97;79.12;97852.53;4159636;28;5810;-70
2022/01/15 12:00:30;;;;;;;;;;;;;;;3.00;79.06;97856.69;4170657;28;5728;-70
2022/01/15 12:02:38;;;;;;;;;;;;;;;2.90;78.89;97860.00;4171214;28;5721;-70
2022/01/15 12:04:40;;;;;;;;;;;;;;;2.93;79.42;97851.91;4171109;28;5845;-69
2022/01/15 12:07:00;;;;;;;;;;;;;;;2.98;79.39;97845.53;4171601;28;5776;-70
2022/01/15 12:09:35;;;;;;;;;;;;;;;2.98;79.13;97838.50;4171966;28;5845;-70
2022/01/15 12:11:37;;;;;;;;;;;;;;;3.04;79.25;97834.56;4171120;28;5737;-70
2022/01/15 12:13:44;;;;;;;;;;;;;;;2.65;80.72;97834.13;4171354;28;5736;-71
2022/01/15 12:15:47;;;;;;;;;;;;;;;2.93;80.27;97828.41;4162439;28;5766;-70
2022/01/15 12:17:54;;;;;;;;;;;;;;;3.05;79.74;97821.38;4153571;28;5684;-69
2022/01/15 12:19:56;;;;;;;;;;;;;;;3.06;79.56;97823.06;4154832;28;5783;-70
2022/01/15 12:21:59;;;;;;;;;;;;;;;3.04;79.49;97818.91;4159322;28;5758;-70
2022/01/15 12:24:34;;;;;;;;;;;;;;;3.06;79.73;97822.22;4162935;28;5665;-70
2022/01/15 12:26:36;;;;;;;;;;;;;;;2.99;79.41;97813.22;4169701;28;5827;-71
2022/01/15 12:28:37;;;;;;;;;;;;;;;2.92;79.53;97811.06;4157256;28;5753;-70
2022/01/15 12:30:50;;;;;;;;;;;;;;;2.90;79.82;97809.53;4154778;28;5770;-70
2022/01/15 12:33:00;;;;;;;;;;;;;;;2.95;79.71;97814.44;4154612;28;5758;-70
2022/01/15 12:35:25;;;;;;;;;;;;;;;2.92;79.80;97805.84;4155095;28;5758;-70
2022/01/15 12:37:30;;;;;;;;;;;;;;;2.93;79.94;97804.91;4155035;28;5761;-70
2022/01/15 12:39:34;;;;;;;;;;;;;;;2.90;80.08;97805.16;4156800;28;5813;-70
2022/01/15 12:41:37;;;;;;;;;;;;;;;2.85;80.23;97809.91;4171336;28;5833;-70
2022/01/15 12:43:43;;;;;;;;;;;;;;;2.57;81.43;97799.94;4168757;28;6409;-70
2022/01/15 12:45:48;;;;;;;;;;;;;;;2.74;80.79;97798.66;4164405;28;5774;-70
2022/01/15 12:47:49;;;;;;;;;;;;;;;2.81;80.66;97798.03;4154979;28;5809;-71
2022/01/15 12:49:55;;;;;;;;;;;;;;;2.98;79.96;97793.28;4154581;28;5751;-70
2022/01/15 12:52:13;;;;;;;;;;;;;;;2.90;80.32;97783.44;4154243;28;5853;-70
2022/01/15 12:54:15;;;;;;;;;;;;;;;3.00;80.53;97780.91;4154488;28;5794;-70
2022/01/15 12:56:18;;;;;;;;;;;;;;;2.96;80.27;97789.97;4157898;28;6001;-70
2022/01/15 12:58:22;;;;;;;;;;;;;;;3.06;79.64;97785.63;4164354;28;5932;-70
2022/01/15 13:00:30;;;;;;;;;;;;;;;2.64;80.37;97785.47;4151216;28;5980;-70
2022/01/15 13:02:32;;;;;;;;;;;;;;;2.84;80.42;97782.16;4152212;28;5868;-70
2022/01/15 13:04:33;;;;;;;;;;;;;;;3.04;79.62;97777.94;4151137;28;5984;-70
2022/01/15 13:06:35;;;;;;;;;;;;;;;3.10;79.48;97781.84;4151104;28;5993;-70
2022/01/15 13:08:42;;;;;;;;;;;;;;;3.14;79.30;97780.66;4150757;28;6074;-70
2022/01/15 13:10:54;;;;;;;;;;;;;;;3.12;79.17;97777.31;4149941;28;6740;-70
2022/01/15 13:12:55;;;;;;;;;;;;;;;3.03;79.43;97786.72;4150868;28;5857;-70
2022/01/15 13:14:57;;;;;;;;;;;;;;;3.10;79.41;97776.63;4164875;28;6538;-70
2022/01/15 13:16:58;;;;;;;;;;;;;;;3.16;79.28;97779.56;4165879;28;5094;-70
2022/01/15 13:19:04;;;;;;;;;;;;;;;2.84;80.06;97782.16;4167077;28;5899;-70
2022/01/15 13:21:08;;;;;;;;;;;;;;;3.07;79.30;97779.50;4167410;28;5065;-70
2022/01/15 13:23:10;;;;;;;;;;;;;;;3.12;78.97;97774.72;4167333;28;5879;-70
2022/01/15 13:25:11;;;;;;;;;;;;;;;3.18;78.78;97775.06;4165746;28;6134;-70
2022/01/15 13:27:19;;;;;;;;;;;;;;;3.23;78.88;97779.91;4166538;28;6561;-67
2022/01/15 13:29:37;;;;;;;;;;;;;;;3.22;78.37;97771.25;4132690;23;5908;-69
2022/01/15 13:31:42;;;;;;;;;;;;;;;3.12;78.21;97769.50;4149215;28;5857;-69
2022/01/15 13:33:45;;;;;;;;;;;;;;;3.03;78.55;97760.59;4134158;28;5806;-69
2022/01/15 13:35:47;;;;;;;;;;;;;;;3.01;78.79;97767.72;4135654;28;6034;-70
2022/01/15 13:37:51;;;;;;;;;;;;;;;3.07;78.62;97763.81;4149039;28;5819;-70
2022/01/15 13:39:52;;;;;;;;;;;;;;;2.99;79.02;97769.66;4150653;28;5858;-70
2022/01/15 13:41:54;;;;;;;;;;;;;;;2.86;79.44;97764.56;4150678;28;5944;-70
2022/01/15 13:43:57;;;;;;;;;;;;;;;2.95;79.22;97759.56;4150789;28;5958;-70
2022/01/15 13:46:14;;;;;;;;;;;;;;;3.03;78.95;97759.78;4146293;28;5875;-70
2022/01/15 13:48:25;;;;;;;;;;;;;;;3.12;79.05;97759.88;4149321;28;5861;-69
2022/01/15 13:53:05;;;;;;;;;;;;;;;3.25;78.37;97753.66;4135153;28;5883;-69
2022/01/15 13:55:07;;;;;;;;;;;;;;;3.27;78.04;97757.78;4135879;28;5879;-69
2022/01/15 13:57:13;;;;;;;;;;;;;;;3.24;78.20;97763.28;4134429;28;5799;-69
2022/01/15 13:59:17;;;;;;;;;;;;;;;3.22;77.97;97754.75;4133724;28;5794;-69
2022/01/15 14:01:31;;;;;;;;;;;;;;;2.87;78.88;97758.38;4132786;28;6032;-69
2022/01/15 14:03:33;;;;;;;;;;;;;;;2.96;78.78;97758.63;4134150;28;5868;-69
2022/01/15 14:05:36;;;;;;;;;;;;;;;2.84;79.24;97756.03;4116323;28;5849;-69
2022/01/15 14:07:38;;;;;;;;;;;;;;;3.05;79.11;97757.84;4133531;28;6625;-70
2022/01/15 14:09:46;;;;;;;;;;;;;;;3.14;78.45;97751.91;4148232;28;5982;-69
2022/01/15 14:12:15;;;;;;;;;;;;;;;3.17;78.14;97754.25;4148831;28;5842;-70
2022/01/15 14:14:20;;;;;;;;;;;;;;;3.18;78.25;97748.94;4133516;28;5887;-70
2022/01/15 14:16:24;;;;;;;;;;;;;;;3.13;78.37;97752.84;4133914;28;5883;-70
2022/01/15 14:18:30;;;;;;;;;;;;;;;2.83;79.32;97743.94;4133839;28;5890;-69
2022/01/15 14:22:59;;;;;;;;;;;;;;;2.93;79.33;97751.84;4132443;28;5813;-69
2022/01/15 14:25:23;;;;;;;;;;;;;;;3.13;78.81;97743.25;4139968;28;5865;-66
2022/01/15 14:27:26;;;;;;;;;;;;;;;3.17;78.75;97746.41;4145898;28;5965;-69
2022/01/15 14:29:28;;;;;;;;;;;;;;;3.18;78.68;97738.50;4144960;28;5812;-69
2022/01/15 14:31:30;;;;;;;;;;;;;;;3.16;78.51;97734.31;4141098;28;6558;-69
2022/01/15 14:33:32;;;;;;;;;;;;;;;3.16;78.59;97731.69;4146746;28;5094;-69
2022/01/15 14:35:33;;;;;;;;;;;;;;;3.16;78.54;97739.53;4149666;28;7748;-70
2022/01/15 14:37:35;;;;;;;;;;;;;;;3.18;78.13;97732.44;4148586;28;7784;-69
2022/01/15 14:39:36;;;;;;;;;;;;;;;3.16;78.61;97729.09;4148688;28;5882;-69
2022/01/15 14:41:38;;;;;;;;;;;;;;;3.12;78.78;97727.69;4134178;28;5878;-69
2022/01/15 14:43:42;;;;;;;;;;;;;;;3.06;78.71;97729.03;4132219;28;5865;-69
2022/01/15 14:45:43;;;;;;;;;;;;;;;3.06;78.89;97730.78;4148636;28;5928;-68
2022/01/15 14:47:48;;;;;;;;;;;;;;;2.91;79.65;97733.69;4135563;28;5875;-69
2022/01/15 14:49:49;;;;;;;;;;;;;;;2.98;79.28;97727.97;4131608;28;5779;-69
2022/01/15 14:51:52;;;;;;;;;;;;;;;3.01;79.23;97731.16;4131821;28;5733;-69
2022/01/15 14:53:53;;;;;;;;;;;;;;;2.97;79.35;97721.09;4132073;28;5806;-69
2022/01/15 14:55:55;;;;;;;;;;;;;;;2.98;79.30;97725.38;4133407;28;6579;-69
2022/01/15 14:57:57;;;;;;;;;;;;;;;2.83;79.84;97717.81;4133326;28;5942;-70
2022/01/15 14:59:59;;;;;;;;;;;;;;;2.91;79.72;97717.19;4147934;28;5965;-70
2022/01/15 15:02:00;;;;;;;;;;;;;;;2.85;80.13;97717.69;4102634;28;5844;-69
2022/01/15 15:04:04;;;;;;;;;;;;;;;2.51;81.52;97720.34;4144188;28;5955;-70
2022/01/15 15:06:05;;;;;;;;;;;;;;;2.71;81.08;97721.38;4144353;28;5870;-70
2022/01/15 15:08:07;;;;;;;;;;;;;;;2.80;80.56;97719.81;4137015;28;5951;-70
2022/01/15 15:10:09;;;;;;;;;;;;;;;2.96;79.97;97722.06;4137046;28;6042;-70
2022/01/15 15:12:11;;;;;;;;;;;;;;;2.96;80.15;97717.66;4133159;28;6594;-69
2022/01/15 15:14:13;;;;;;;;;;;;;;;2.97;80.05;97723.72;4132002;28;5809;-70
2022/01/15 15:16:14;;;;;;;;;;;;;;;2.94;80.30;97722.16;4133204;28;5891;-70
2022/01/15 15:18:17;;;;;;;;;;;;;;;2.87;80.35;97718.38;4131543;28;5944;-70
2022/01/15 15:20:18;;;;;;;;;;;;;;;2.68;81.26;97732.06;4131821;28;5837;-70
2022/01/15 15:22:21;;;;;;;;;;;;;;;2.66;81.41;97723.53;4131994;28;5814;-70
2022/01/15 15:24:22;;;;;;;;;;;;;;;2.83;81.08;97730.00;4144931;28;5817;-69
2022/01/15 15:26:24;;;;;;;;;;;;;;;2.87;80.70;97718.38;4136601;28;5909;-70
2022/01/15 15:28:26;;;;;;;;;;;;;;;2.90;80.56;97718.97;4144139;28;5757;-70
2022/01/15 15:30:28;;;;;;;;;;;;;;;2.92;80.53;97718.84;4163202;28;5783;-70
2022/01/15 15:32:29;;;;;;;;;;;;;;;2.91;80.65;97719.78;4150151;28;5839;-70
2022/01/15 15:34:31;;;;;;;;;;;;;;;2.89;80.79;97722.53;4168617;28;5780;-69
2022/01/15 15:36:33;;;;;;;;;;;;;;;2.81;80.87;97724.91;4151184;28;5711;-70
2022/01/15 15:38:36;;;;;;;;;;;;;;;2.76;81.10;97718.41;4151172;28;5901;-70
2022/01/15 15:40:38;;;;;;;;;;;;;;;2.72;81.32;97710.00;4151196;28;6703;-70
2022/01/15 15:42:40;;;;;;;;;;;;;;;2.72;81.10;97712.59;4160360;28;5684;-70
2022/01/15 15:44:41;;;;;;;;;;;;;;;2.77;80.92;97713.06;4152600;28;5704;-70
2022/01/15 15:46:43;;;;;;;;;;;;;;;2.80;80.89;97718.03;4158104;28;5752;-70
2022/01/15 15:48:46;;;;;;;;;;;;;;;2.80;80.89;97715.41;4150518;28;5712;-69
2022/01/15 15:50:49;;;;;;;;;;;;;;;2.80;80.83;97706.75;4169033;28;5816;-70
2022/01/15 15:52:51;;;;;;;;;;;;;;;2.77;81.07;97710.44;4166923;28;5923;-68
2022/01/15 15:54:55;;;;;;;;;;;;;;;2.73;81.28;97705.59;4152385;28;5779;-70
2022/01/15 15:56:57;;;;;;;;;;;;;;;2.75;81.29;97706.31;4152291;28;6755;-69
2022/01/15 15:58:59;;;;;;;;;;;;;;;2.77;81.19;97707.00;4122595;28;5814;-70
2022/01/15 16:01:00;;;;;;;;;;;;;;;2.75;81.20;97704.53;4145241;28;5888;-70
2022/01/15 16:03:03;;;;;;;;;;;;;;;2.71;81.16;97703.09;4168469;28;5837;-70
2022/01/15 16:05:05;;;;;;;;;;;;;;;2.69;81.48;97699.78;4168548;28;5760;-70
2022/01/15 16:07:07;;;;;;;;;;;;;;;2.67;81.47;97699.06;4150929;28;5668;-70
2022/01/15 16:09:09;;;;;;;;;;;;;;;2.67;81.58;97696.47;4134181;28;5765;-70
2022/01/15 16:11:11;;;;;;;;;;;;;;;2.57;81.98;97700.75;4168373;28;5772;-70
2022/01/15 16:13:16;;;;;;;;;;;;;;;2.68;81.79;97703.34;4168328;28;5764;-70
2022/01/15 16:15:19;;;;;;;;;;;;;;;2.71;81.11;97707.47;4150555;28;5703;-70
2022/01/15 16:17:21;;;;;;;;;;;;;;;2.72;81.22;97704.78;4138398;28;6253;-70
2022/01/15 16:19:23;;;;;;;;;;;;;;;2.69;81.37;97702.38;4151644;28;5787;-70
2022/01/15 16:21:25;;;;;;;;;;;;;;;2.75;81.10;97704.53;4134130;28;5835;-70
2022/01/15 16:23:27;;;;;;;;;;;;;;;2.71;81.51;97707.47;4151736;28;5779;-70
2022/01/15 16:25:29;;;;;;;;;;;;;;;2.63;81.89;97700.28;4151890;28;5814;-70
2022/01/15 16:27:30;;;;;;;;;;;;;;;2.56;82.17;97707.75;4151907;28;5783;-70
2022/01/15 16:29:35;;;;;;;;;;;;;;;2.60;82.04;97700.50;4133645;28;5799;-71
2022/01/15 16:31:36;;;;;;;;;;;;;;;2.73;81.64;97706.44;4135600;28;5862;-70
2022/01/15 16:33:38;;;;;;;;;;;;;;;2.80;81.26;97706.75;4135496;28;5887;-70
2022/01/15 16:35:40;;;;;;;;;;;;;;;2.81;81.28;97714.47;4133962;28;5287;-70
2022/01/15 16:37:41;;;;;;;;;;;;;;;2.76;81.48;97718.41;4135238;28;7906;-69
2022/01/15 16:39:43;;;;;;;;;;;;;;;2.53;82.34;97712.41;4133732;28;5838;-69
2022/01/15 16:41:45;;;;;;;;;;;;;;;2.24;83.94;97720.69;4135224;28;5882;-69
2022/01/15 16:43:47;;;;;;;;;;;;;;;2.50;82.82;97717.88;4132797;28;5799;-70
2022/01/15 16:45:48;;;;;;;;;;;;;;;2.67;81.81;97716.53;4135180;28;5878;-70
2022/01/15 16:47:50;;;;;;;;;;;;;;;2.68;81.79;97708.56;4134938;28;6003;-70
2022/01/15 16:49:52;;;;;;;;;;;;;;;2.71;81.81;97712.72;4135481;28;5871;-70
2022/01/15 16:51:54;;;;;;;;;;;;;;;2.70;81.83;97721.50;4135229;28;5886;-70
2022/01/15 16:53:56;;;;;;;;;;;;;;;2.72;81.69;97720.44;4147160;28;5978;-70
2022/01/15 16:55:58;;;;;;;;;;;;;;;2.75;81.63;97720.19;4151311;28;5861;-70
2022/01/15 16:58:00;;;;;;;;;;;;;;;2.73;81.59;97723.88;4150976;28;5949;-70
2022/01/15 17:00:09;;;;;;;;;;;;;;;2.77;81.68;97722.69;4149196;28;5784;-69
2022/01/15 17:02:12;;;;;;;;;;;;;;;2.84;81.33;97732.53;4148545;28;5775;-70
2022/01/15 17:04:14;;;;;;;;;;;;;;;2.76;81.77;97737.50;4134897;28;5878;-69
2022/01/15 17:06:18;;;;;;;;;;;;;;;2.83;81.27;97730.88;4135021;28;6680;-69
2022/01/15 17:08:22;;;;;;;;;;;;;;;2.86;81.02;97735.00;4133442;28;5906;-69
2022/01/15 17:10:24;;;;;;;;;;;;;;;2.90;81.20;97728.56;4134915;28;6015;-70
2022/01/15 17:12:26;;;;;;;;;;;;;;;2.92;80.88;97737.13;4134927;28;5911;-69
2022/01/15 17:14:29;;;;;;;;;;;;;;;2.96;80.92;97728.09;4134746;28;5895;-70
2022/01/15 17:16:30;;;;;;;;;;;;;;;2.97;80.81;97728.94;4133486;28;5783;-70
2022/01/15 17:18:32;;;;;;;;;;;;;;;2.95;80.82;97731.66;4134447;28;5770;-69
2022/01/15 17:20:34;;;;;;;;;;;;;;;2.88;81.32;97726.09;4150781;28;5845;-70
2022/01/15 17:22:35;;;;;;;;;;;;;;;2.87;81.10;97734.06;4150905;28;5865;-70
2022/01/15 17:24:37;;;;;;;;;;;;;;;2.86;81.30;97729.78;4150904;28;5962;-70
2022/01/15 17:26:39;;;;;;;;;;;;;;;2.71;81.98;97731.81;4150205;28;5853;-69
2022/01/15 17:28:41;;;;;;;;;;;;;;;2.62;82.32;97730.78;4155858;28;5753;-70
2022/01/15 17:30:43;;;;;;;;;;;;;;;2.76;81.70;97731.47;4164744;28;5756;-69
2022/01/15 17:32:48;;;;;;;;;;;;;;;2.79;81.80;97731.22;4140393;28;5608;-69
2022/01/15 17:34:50;;;;;;;;;;;;;;;2.84;81.51;97724.69;4161885;28;5834;-69
2022/01/15 17:36:52;;;;;;;;;;;;;;;2.80;81.49;97725.88;4131364;28;6435;-70
2022/01/15 17:38:55;;;;;;;;;;;;;;;2.78;81.51;97725.16;4148573;28;5883;-69
2022/01/15 17:40:57;;;;;;;;;;;;;;;2.80;81.59;97722.44;4153239;28;5756;-69
2022/01/15 17:43:00;;;;;;;;;;;;;;;2.77;81.79;97723.50;4160292;28;5830;-69
2022/01/15 17:45:03;;;;;;;;;;;;;;;2.85;81.53;97715.06;4163444;28;5847;-69
2022/01/15 17:47:05;;;;;;;;;;;;;;;2.90;81.49;97718.97;4142480;28;5722;-69
2022/01/15 17:49:07;;;;;;;;;;;;;;;2.90;81.38;97718.97;4115542;28;5713;-69
2022/01/15 17:51:09;;;;;;;;;;;;;;;2.87;81.27;97711.38;4148993;28;5775;-69
2022/01/15 17:53:12;;;;;;;;;;;;;;;2.76;81.59;97719.25;4131245;28;5702;-69
2022/01/15 17:55:14;;;;;;;;;;;;;;;2.68;82.73;97718.19;4132597;28;5808;-70
2022/01/15 17:57:15;;;;;;;;;;;;;;;2.65;82.75;97718.44;4161299;28;5799;-70
2022/01/15 17:59:17;;;;;;;;;;;;;;;2.52;83.00;97713.34;4131058;28;5751;-70
2022/01/15 18:01:18;;;;;;;;;;;;;;;2.47;83.36;97710.25;4148975;28;5792;-69
2022/01/15 18:03:20;;;;;;;;;;;;;;;2.37;83.84;97719.75;4148603;28;5887;-69
2022/01/15 18:05:22;;;;;;;;;;;;;;;2.47;83.37;97718.91;4148599;28;5768;-69
2022/01/15 18:07:25;;;;;;;;;;;;;;;2.07;85.15;97718.56;4148606;28;5892;-69
2022/01/15 18:09:32;;;;;;;;;;;;;;;2.01;85.75;97719.84;4135494;28;5692;-69
2022/01/15 18:11:37;;;;;;;;;;;;;;;2.37;84.21;97717.13;4164347;28;5753;-69
2022/01/15 18:13:38;;;;;;;;;;;;;;;2.38;84.65;97714.44;4151037;28;5755;-69
2022/01/15 18:15:40;;;;;;;;;;;;;;;2.46;84.38;97713.81;4148399;28;5819;-70
2022/01/15 18:17:43;;;;;;;;;;;;;;;2.52;83.72;97705.50;4155568;28;5855;-69
2022/01/15 18:19:45;;;;;;;;;;;;;;;2.57;83.60;97708.59;4161029;28;5761;-70
2022/01/15 18:21:47;;;;;;;;;;;;;;;2.70;83.19;97711.88;4140382;28;5718;-70
2022/01/15 18:23:49;;;;;;;;;;;;;;;2.83;82.66;97706.50;4148534;28;5771;-70
2022/01/15 18:25:52;;;;;;;;;;;;;;;2.85;82.24;97715.06;4147996;28;5768;-70
2022/01/15 18:27:53;;;;;;;;;;;;;;;2.88;82.39;97712.22;4160201;28;5760;-70
2022/01/15 18:29:57;;;;;;;;;;;;;;;2.85;82.13;97710.69;4151399;28;5803;-70
2022/01/15 18:32:16;;;;;;;;;;;;;;;2.86;82.13;97714.94;4163830;28;5796;-69